createdAt,value
2023-03-10T00:00:53.663Z,26.50
2023-03-10T00:03:21.709Z,26.30
2023-03-10T00:05:49.978Z,26.40
2023-03-10T00:08:17.951Z,26.50
2023-03-10T00:10:45.923Z,26.30
2023-03-10T00:13:13.871Z,26.30
2023-03-10T00:15:43.429Z,26.60
2023-03-10T00:18:11.434Z,26.60
2023-03-10T00:20:39.398Z,26.60
2023-03-10T00:23:07.371Z,26.40
2023-03-10T00:25:35.322Z,26.30
2023-03-10T00:28:03.344Z,26.40
2023-03-10T00:30:35.049Z,26.60
2023-03-10T00:33:04.506Z,26.40
2023-03-10T00:35:32.515Z,26.70
2023-03-10T00:38:02.410Z,26.40
2023-03-10T00:40:30.352Z,26.40
2023-03-10T00:42:59.416Z,26.40
2023-03-10T00:45:27.376Z,26.40
2023-03-10T00:47:55.367Z,26.10
2023-03-10T00:50:24.646Z,26.50
2023-03-10T00:52:52.590Z,26.70
2023-03-10T00:55:20.537Z,26.70
2023-03-10T00:57:48.505Z,26.30
2023-03-10T01:00:17.980Z,26.40
2023-03-10T01:02:45.935Z,26.60
2023-03-10T01:05:15.357Z,26.60
2023-03-10T01:07:44.838Z,26.10
2023-03-10T01:10:13.976Z,26.40
2023-03-10T01:12:41.971Z,26.60
2023-03-10T01:15:12.286Z,26.60
2023-03-10T01:17:40.272Z,26.70
2023-03-10T01:20:14.881Z,26.50
2023-03-10T01:22:44.471Z,26.50
2023-03-10T01:25:15.378Z,26.70
2023-03-10T01:27:43.482Z,26.30
2023-03-10T01:30:14.391Z,26.50
2023-03-10T01:32:42.707Z,26.40
2023-03-10T01:35:12.254Z,26.60
2023-03-10T01:37:40.744Z,26.60
2023-03-10T01:40:16.334Z,26.40
2023-03-10T01:42:44.755Z,26.70
2023-03-10T01:46:04.773Z,26.40
2023-03-10T01:48:36.984Z,26.60
2023-03-10T01:51:05.828Z,26.20
2023-03-10T01:53:34.707Z,26.70
2023-03-10T01:56:07.112Z,26.50
2023-03-10T01:58:42.103Z,26.50
2023-03-10T02:01:12.496Z,26.50
2023-03-10T02:03:48.999Z,26.30
2023-03-10T02:06:21.256Z,26.40
2023-03-10T02:08:53.393Z,26.50
2023-03-10T02:11:23.353Z,26.70
2023-03-10T02:13:51.500Z,26.70
2023-03-10T02:16:19.707Z,26.70
2023-03-10T02:18:50.464Z,26.80
2023-03-10T02:21:32.600Z,26.70
2023-03-10T02:24:07.366Z,26.70
2023-03-10T02:26:48.916Z,26.40
2023-03-10T02:29:24.976Z,26.60
2023-03-10T02:31:54.538Z,26.60
2023-03-10T02:34:22.759Z,27.20
2023-03-10T02:36:50.788Z,26.80
2023-03-10T02:39:18.788Z,26.70
2023-03-10T02:41:47.712Z,26.70
2023-03-10T02:44:21.197Z,26.40
2023-03-10T02:46:49.339Z,26.60
2023-03-10T02:49:20.323Z,26.80
2023-03-10T02:51:48.724Z,26.80
2023-03-10T02:54:17.218Z,26.30
2023-03-10T02:56:45.578Z,26.80
2023-03-10T02:59:14.890Z,27.00
2023-03-10T03:01:44.252Z,26.70
2023-03-10T03:04:12.349Z,26.50
2023-03-10T03:06:40.970Z,26.70
2023-03-10T03:09:08.958Z,26.70
2023-03-10T03:11:37.054Z,26.60
2023-03-10T03:14:05.042Z,26.60
2023-03-10T03:16:33.191Z,26.70
2023-03-10T03:19:02.584Z,26.80
2023-03-10T03:21:32.200Z,26.90
2023-03-10T03:24:00.173Z,26.70
2023-03-10T03:26:28.663Z,26.80
2023-03-10T03:28:57.177Z,26.60
2023-03-10T03:31:26.847Z,26.60
2023-03-10T03:33:54.858Z,26.70
2023-03-10T03:36:24.238Z,26.80
2023-03-10T03:38:52.216Z,26.80
2023-03-10T03:41:20.216Z,26.50
2023-03-10T03:43:48.293Z,26.80
2023-03-10T03:46:16.326Z,26.80
2023-03-10T03:48:44.373Z,26.80
2023-03-10T03:51:12.426Z,27.00
2023-03-10T03:53:41.767Z,26.80
2023-03-10T03:56:09.970Z,26.60
2023-03-10T03:58:37.888Z,26.90
2023-03-10T04:01:06.185Z,26.80
2023-03-10T04:03:34.326Z,26.90
2023-03-10T04:06:02.422Z,26.60
2023-03-10T04:08:30.436Z,27.00
2023-03-10T04:10:59.842Z,26.90
2023-03-10T04:13:27.795Z,26.90
2023-03-10T04:15:57.420Z,26.90
2023-03-10T04:18:25.832Z,27.00
2023-03-10T04:20:53.775Z,26.60
2023-03-10T04:23:21.799Z,26.50
2023-03-10T04:25:50.090Z,26.70
2023-03-10T04:28:19.428Z,26.40
2023-03-10T04:30:48.150Z,26.80
2023-03-10T04:33:16.126Z,27.00
2023-03-10T04:35:47.533Z,26.80
2023-03-10T04:38:15.646Z,26.50
2023-03-10T04:40:43.749Z,26.70
2023-03-10T04:43:11.856Z,26.70
2023-03-10T04:45:41.188Z,26.70
2023-03-10T04:48:09.308Z,26.90
2023-03-10T04:50:37.309Z,26.90
2023-03-10T04:53:05.246Z,26.40
2023-03-10T04:55:33.474Z,26.70
2023-03-10T04:58:01.580Z,26.90
2023-03-10T05:00:29.747Z,26.80
2023-03-10T05:03:01.538Z,26.80
2023-03-10T05:05:29.553Z,26.30
2023-03-10T05:07:57.530Z,26.80
2023-03-10T05:10:25.598Z,26.70
2023-03-10T05:12:53.705Z,26.80
2023-03-10T05:15:21.788Z,26.80
2023-03-10T05:17:50.197Z,26.70
2023-03-10T05:20:20.363Z,27.10
2023-03-10T05:22:48.275Z,26.80
2023-03-10T05:25:16.248Z,26.80
2023-03-10T05:27:44.272Z,26.80
2023-03-10T05:30:15.844Z,26.70
2023-03-10T05:32:45.187Z,26.70
2023-03-10T05:35:14.661Z,26.20
2023-03-10T05:37:45.220Z,26.40
2023-03-10T05:40:16.157Z,26.60
2023-03-10T05:42:44.122Z,26.50
2023-03-10T05:45:13.010Z,26.60
2023-03-10T05:47:41.484Z,26.90
2023-03-10T05:50:11.820Z,26.80
2023-03-10T05:52:41.460Z,26.60
2023-03-10T05:55:15.298Z,26.20
2023-03-10T05:57:43.588Z,26.70
2023-03-10T06:00:15.176Z,26.00
2023-03-10T06:02:43.619Z,26.90
2023-03-10T06:05:13.516Z,26.70
2023-03-10T06:07:42.002Z,27.00
2023-03-10T06:10:12.623Z,26.70
2023-03-10T06:12:40.649Z,26.60
2023-03-10T06:15:09.917Z,26.60
2023-03-10T06:17:37.892Z,26.70
2023-03-10T06:20:07.079Z,26.90
2023-03-10T06:22:35.065Z,26.70
2023-03-10T06:25:03.725Z,26.80
2023-03-10T06:27:33.556Z,26.80
2023-03-10T06:30:01.721Z,26.70
2023-03-10T06:32:29.784Z,26.50
2023-03-10T06:35:00.362Z,26.50
2023-03-10T06:37:28.993Z,26.50
2023-03-10T06:39:57.022Z,26.80
2023-03-10T06:42:25.273Z,26.60
2023-03-10T06:44:56.547Z,26.50
2023-03-10T06:47:24.511Z,26.50
2023-03-10T06:49:54.548Z,26.40
2023-03-10T06:52:22.681Z,26.40
2023-03-10T06:54:50.934Z,26.10
2023-03-10T06:57:20.992Z,26.20
2023-03-10T06:59:49.222Z,26.60
2023-03-10T07:02:19.785Z,26.50
2023-03-10T07:04:48.003Z,26.80
2023-03-10T07:07:16.221Z,26.70
2023-03-10T07:09:46.031Z,27.00
2023-03-10T07:12:14.158Z,26.70
2023-03-10T07:14:42.094Z,26.60
2023-03-10T07:17:10.221Z,26.60
2023-03-10T07:19:39.609Z,26.70
2023-03-10T07:22:09.156Z,26.50
2023-03-10T07:24:39.012Z,26.60
2023-03-10T07:27:07.641Z,26.50
2023-03-10T07:29:35.638Z,26.70
2023-03-10T07:32:03.814Z,26.70
2023-03-10T07:34:31.837Z,26.60
2023-03-10T07:37:01.090Z,26.70
2023-03-10T07:39:29.094Z,26.40
2023-03-10T07:41:57.041Z,26.30
2023-03-10T07:44:25.038Z,26.60
2023-03-10T07:46:53.003Z,26.40
2023-03-10T07:49:22.306Z,26.60
2023-03-10T07:51:50.422Z,26.50
2023-03-10T07:54:19.736Z,26.70
2023-03-10T07:56:49.998Z,26.40
2023-03-10T07:59:19.174Z,26.50
2023-03-10T08:01:47.166Z,26.50
2023-03-10T08:04:17.085Z,26.40
2023-03-10T08:06:47.308Z,26.60
2023-03-10T08:09:15.310Z,26.20
2023-03-10T08:11:44.649Z,25.90
2023-03-10T08:14:12.695Z,26.40
2023-03-10T08:16:40.744Z,26.20
2023-03-10T08:19:08.680Z,26.00
2023-03-10T08:21:36.696Z,25.90
2023-03-10T08:24:05.136Z,25.50
2023-03-10T08:26:33.163Z,25.80
2023-03-10T08:29:02.607Z,25.50
2023-03-10T08:31:30.744Z,25.50
2023-03-10T08:33:59.557Z,25.60
2023-03-10T08:36:31.216Z,25.40
2023-03-10T08:39:00.612Z,25.20
2023-03-10T08:41:31.337Z,25.30
2023-03-10T08:44:01.819Z,24.90
2023-03-10T08:46:32.768Z,24.40
2023-03-10T08:49:01.705Z,24.80
2023-03-10T08:51:30.180Z,24.60
2023-03-10T08:53:58.699Z,24.80
2023-03-10T08:56:27.267Z,25.10
2023-03-10T08:58:58.842Z,24.70
2023-03-10T09:01:31.149Z,24.80
2023-03-10T09:04:00.204Z,24.80
2023-03-10T09:06:28.732Z,24.80
2023-03-10T09:08:56.806Z,24.80
2023-03-10T09:11:28.109Z,24.70
2023-03-10T09:13:56.756Z,24.80
2023-03-10T09:16:25.752Z,24.70
2023-03-10T09:18:55.113Z,24.60
2023-03-10T09:21:23.111Z,24.90
2023-03-10T09:23:52.826Z,23.90
2023-03-10T09:26:22.227Z,24.40
2023-03-10T09:28:51.130Z,24.00
2023-03-10T09:31:22.774Z,24.70
2023-03-10T09:33:50.878Z,24.50
2023-03-10T09:36:20.302Z,24.50
2023-03-10T09:38:48.396Z,24.50
2023-03-10T09:41:41.165Z,24.80
2023-03-10T09:44:26.161Z,24.40
2023-03-10T09:47:11.816Z,24.30
2023-03-10T09:49:45.046Z,24.20
2023-03-10T09:52:23.759Z,24.20
2023-03-10T09:55:00.213Z,24.20
2023-03-10T09:57:31.506Z,24.40
2023-03-10T10:00:05.282Z,24.70
2023-03-10T10:02:38.690Z,24.20
2023-03-10T10:05:17.311Z,24.00
2023-03-10T10:07:51.340Z,24.60
2023-03-10T10:10:25.736Z,24.80
2023-03-10T10:12:55.549Z,24.50
2023-03-10T10:15:26.671Z,24.60
2023-03-10T10:18:19.704Z,24.40
2023-03-10T10:20:58.850Z,24.70
2023-03-10T10:23:35.031Z,24.60
2023-03-10T10:26:12.625Z,24.30
2023-03-10T10:28:44.997Z,24.40
2023-03-10T10:31:18.366Z,24.50
2023-03-10T10:33:57.365Z,24.40
2023-03-10T10:36:27.505Z,24.50
2023-03-10T10:38:58.943Z,24.50
2023-03-10T10:41:30.941Z,25.20
2023-03-10T10:44:07.640Z,24.60
2023-03-10T10:46:35.743Z,24.70
2023-03-10T10:49:20.432Z,24.80
2023-03-10T10:52:00.169Z,24.80
2023-03-10T10:54:35.522Z,25.00
2023-03-10T10:57:06.247Z,25.10
2023-03-10T10:59:36.227Z,25.30
2023-03-10T11:02:23.555Z,25.20
2023-03-10T11:04:51.825Z,24.90
2023-03-10T11:07:25.528Z,25.00
2023-03-10T11:09:57.662Z,24.90
2023-03-10T11:12:32.918Z,25.10
2023-03-10T11:15:14.189Z,24.70
2023-03-10T11:17:48.395Z,24.90
2023-03-10T11:20:27.187Z,25.20
2023-03-10T11:23:12.933Z,25.00
2023-03-10T11:25:49.056Z,24.90
2023-03-10T11:28:42.106Z,25.20
2023-03-10T11:31:37.515Z,25.40
2023-03-10T11:34:19.522Z,25.40
2023-03-10T11:37:00.071Z,25.40
2023-03-10T11:39:41.522Z,25.50
2023-03-10T11:42:19.914Z,25.30
2023-03-10T11:45:01.577Z,25.50
2023-03-10T11:47:46.134Z,26.10
2023-03-10T11:50:27.858Z,25.80
2023-03-10T11:53:01.924Z,26.00
2023-03-10T11:55:31.662Z,26.10
2023-03-10T11:58:05.081Z,26.20
2023-03-10T12:00:39.471Z,25.40
2023-03-10T12:03:21.332Z,25.90
2023-03-10T12:05:53.924Z,26.00
2023-03-10T12:08:25.767Z,25.70
2023-03-10T12:10:55.419Z,26.00
2023-03-10T12:13:28.412Z,26.00
2023-03-10T12:16:00.522Z,26.30
2023-03-10T12:18:29.490Z,26.00
2023-03-10T12:21:18.793Z,25.70
2023-03-10T12:23:48.751Z,25.90
2023-03-10T12:27:01.167Z,25.90
2023-03-10T12:29:43.268Z,26.10
2023-03-10T12:32:48.154Z,26.30
2023-03-10T12:35:50.631Z,26.00
2023-03-10T12:38:47.011Z,25.70
2023-03-10T12:41:46.125Z,26.40
2023-03-10T12:44:51.286Z,26.30
2023-03-10T12:47:46.632Z,26.50
2023-03-10T12:50:31.180Z,26.20
2023-03-10T12:53:14.106Z,26.30
2023-03-10T12:55:43.994Z,26.10
2023-03-10T12:58:18.544Z,26.40
2023-03-10T13:00:51.134Z,26.30
2023-03-10T13:03:32.702Z,26.20
2023-03-10T13:06:07.990Z,26.30
2023-03-10T13:08:43.881Z,26.70
2023-03-10T13:11:30.518Z,26.40
2023-03-10T13:14:03.018Z,26.40
2023-03-10T13:16:33.412Z,26.00
2023-03-10T13:19:01.890Z,26.20
2023-03-10T13:21:33.353Z,26.10
2023-03-10T13:24:04.341Z,26.30
2023-03-10T13:26:32.453Z,26.20
2023-03-10T13:29:02.809Z,26.30
2023-03-10T13:31:33.833Z,26.00
2023-03-10T13:34:14.594Z,25.80
2023-03-10T13:36:42.603Z,26.20
2023-03-10T13:39:16.831Z,26.20
2023-03-10T13:41:47.009Z,26.10
2023-03-10T13:44:20.161Z,26.10
2023-03-10T13:46:52.756Z,26.00
2023-03-10T13:49:25.280Z,26.30
2023-03-10T13:51:55.467Z,26.20
2023-03-10T13:54:26.612Z,26.00
2023-03-10T13:56:58.441Z,26.30
2023-03-10T13:59:30.465Z,26.30
2023-03-10T14:02:02.144Z,26.40
2023-03-10T14:04:45.833Z,26.30
2023-03-10T14:07:18.221Z,26.60
2023-03-10T14:09:48.792Z,26.60
2023-03-10T14:12:37.148Z,26.30
2023-03-10T14:15:21.285Z,26.40
2023-03-10T14:17:52.543Z,26.60
2023-03-10T14:20:29.181Z,26.60
2023-03-10T14:22:57.687Z,26.80
2023-03-10T14:25:26.630Z,26.90
2023-03-10T14:28:00.397Z,26.20
2023-03-10T14:30:31.713Z,26.30
2023-03-10T14:33:02.482Z,26.30
2023-03-10T14:35:31.189Z,26.60
2023-03-10T14:37:59.163Z,26.40
2023-03-10T14:40:27.442Z,26.80
2023-03-10T14:43:01.809Z,26.60
2023-03-10T14:45:32.209Z,26.90
2023-03-10T14:48:05.359Z,26.60
2023-03-10T14:50:34.191Z,26.90
2023-03-10T14:53:02.146Z,26.80
2023-03-10T14:55:30.665Z,26.90
2023-03-10T14:58:04.484Z,26.80
2023-03-10T15:00:32.748Z,27.00
2023-03-10T15:03:02.277Z,26.60
2023-03-10T15:05:45.435Z,27.00
2023-03-10T15:08:15.666Z,26.90
2023-03-10T15:10:47.842Z,26.80
2023-03-10T15:13:16.439Z,27.50
2023-03-10T15:15:47.490Z,27.00
2023-03-10T15:18:20.310Z,26.70
2023-03-10T15:20:48.721Z,26.70
2023-03-10T15:23:19.465Z,26.80
2023-03-10T15:25:48.160Z,26.90
2023-03-10T15:28:16.471Z,26.60
2023-03-10T15:30:44.748Z,27.00
2023-03-10T15:33:12.840Z,26.90
2023-03-10T15:35:42.800Z,26.70
2023-03-10T15:38:14.466Z,26.90
2023-03-10T15:40:43.213Z,26.90
2023-03-10T15:43:11.562Z,26.80
2023-03-10T15:45:42.453Z,26.90
2023-03-10T15:48:11.431Z,26.80
2023-03-10T15:50:44.711Z,26.80
2023-03-10T15:53:12.745Z,26.80
2023-03-10T15:55:42.084Z,27.00
2023-03-10T15:58:12.364Z,26.70
2023-03-10T16:00:42.215Z,26.90
2023-03-10T16:03:10.953Z,26.80
2023-03-10T16:05:39.191Z,26.90
2023-03-10T16:08:08.461Z,27.00
2023-03-10T16:10:38.216Z,27.00
2023-03-10T16:13:06.368Z,27.10
2023-03-10T16:15:34.609Z,26.90
2023-03-10T16:18:02.571Z,26.90
2023-03-10T16:20:30.512Z,26.80
2023-03-10T16:22:58.484Z,26.90
2023-03-10T16:25:27.893Z,26.90
2023-03-10T16:27:55.911Z,27.00
2023-03-10T16:30:24.185Z,27.10
2023-03-10T16:32:52.367Z,26.80
2023-03-10T16:35:20.823Z,27.10
2023-03-10T16:37:48.780Z,26.90
2023-03-10T16:40:17.004Z,27.20
2023-03-10T16:42:46.456Z,27.30
2023-03-10T16:45:14.975Z,27.20
2023-03-10T16:47:43.893Z,27.20
2023-03-10T16:50:14.048Z,26.90
2023-03-10T16:52:43.434Z,27.20
2023-03-10T16:55:16.955Z,27.10
2023-03-10T16:57:46.788Z,27.00
2023-03-10T17:00:20.772Z,27.10
2023-03-10T17:02:49.066Z,27.40
2023-03-10T17:05:18.081Z,27.40
2023-03-10T17:07:55.421Z,27.40
2023-03-10T17:10:26.388Z,27.60
2023-03-10T17:12:55.755Z,27.20
2023-03-10T17:15:24.203Z,27.60
2023-03-10T17:17:52.199Z,27.90
2023-03-10T17:20:20.392Z,28.00
2023-03-10T17:22:49.122Z,28.00
2023-03-10T17:25:17.116Z,27.40
2023-03-10T17:27:45.295Z,28.30
2023-03-10T17:30:18.876Z,27.80
2023-03-10T17:32:49.422Z,27.80
2023-03-10T17:35:17.653Z,27.60
2023-03-10T17:37:46.409Z,27.60
2023-03-10T17:40:17.186Z,27.80
2023-03-10T17:42:45.573Z,28.20
2023-03-10T17:45:14.935Z,27.60
2023-03-10T17:47:42.876Z,28.00
2023-03-10T17:50:12.583Z,28.00
2023-03-10T17:52:40.616Z,28.00
2023-03-10T17:55:09.489Z,28.10
2023-03-10T17:57:39.115Z,28.00
2023-03-10T18:00:11.043Z,28.10
2023-03-10T18:02:40.717Z,28.10
2023-03-10T18:05:10.044Z,27.90
2023-03-10T18:07:38.051Z,28.20
2023-03-10T18:10:08.524Z,28.20
2023-03-10T18:12:36.523Z,28.20
2023-03-10T18:15:05.547Z,27.80
2023-03-10T18:17:33.481Z,27.90
2023-03-10T18:20:05.579Z,27.80
2023-03-10T18:22:33.523Z,28.10
2023-03-10T18:25:02.243Z,27.90
2023-03-10T18:27:32.025Z,28.10
2023-03-10T18:30:00.434Z,28.20
2023-03-10T18:32:30.642Z,27.80
2023-03-10T18:34:59.313Z,28.00
2023-03-10T18:37:29.198Z,28.20
2023-03-10T18:39:58.349Z,28.30
2023-03-10T18:42:26.941Z,27.80
2023-03-10T18:44:55.555Z,28.20
2023-03-10T18:47:23.530Z,28.30
2023-03-10T18:49:51.483Z,28.20
2023-03-10T18:52:19.427Z,28.20
2023-03-10T18:54:49.460Z,28.10
2023-03-10T18:57:17.608Z,29.10
2023-03-10T18:59:45.750Z,28.30
2023-03-10T19:02:16.027Z,28.20
2023-03-10T19:04:47.536Z,28.20
2023-03-10T19:07:17.372Z,28.20
2023-03-10T19:09:45.422Z,28.40
2023-03-10T19:12:14.994Z,28.10
2023-03-10T19:14:44.629Z,28.10
2023-03-10T19:17:12.732Z,28.40
2023-03-10T19:19:40.687Z,28.30
2023-03-10T19:22:08.708Z,28.40
2023-03-10T19:24:37.170Z,28.10
2023-03-10T19:27:05.273Z,28.20
2023-03-10T19:29:34.633Z,28.40
2023-03-10T19:32:02.925Z,28.40
2023-03-10T19:34:31.011Z,27.90
2023-03-10T19:36:58.989Z,27.90
2023-03-10T19:39:27.011Z,28.50
2023-03-10T19:41:55.020Z,28.40
2023-03-10T19:44:23.017Z,28.40
2023-03-10T19:46:52.379Z,28.20
2023-03-10T19:49:20.462Z,28.30
2023-03-10T19:51:48.550Z,28.30
2023-03-10T19:54:16.526Z,28.30
2023-03-10T19:56:44.585Z,28.40
2023-03-10T19:59:12.550Z,28.10
2023-03-10T20:01:42.034Z,28.30
2023-03-10T20:04:12.305Z,28.40
2023-03-10T20:06:40.294Z,28.20
2023-03-10T20:09:10.412Z,28.40
2023-03-10T20:11:39.681Z,29.00
2023-03-10T20:14:08.412Z,28.30
2023-03-10T20:16:37.334Z,28.10
2023-03-10T20:19:05.408Z,28.40
2023-03-10T20:21:34.783Z,28.20
2023-03-10T20:24:02.946Z,28.10
2023-03-10T20:26:30.954Z,28.40
2023-03-10T20:29:01.404Z,28.60
2023-03-10T20:31:33.792Z,28.20
2023-03-10T20:34:02.310Z,28.10
2023-03-10T20:36:30.722Z,27.90
2023-03-10T20:39:00.405Z,28.70
2023-03-10T20:41:28.492Z,28.30
2023-03-10T20:43:56.450Z,28.70
2023-03-10T20:46:25.708Z,28.30
2023-03-10T20:48:53.694Z,28.40
2023-03-10T20:51:22.502Z,28.50
2023-03-10T20:53:51.683Z,28.40
2023-03-10T20:56:21.030Z,28.30
2023-03-10T20:58:49.146Z,28.70
2023-03-10T21:01:19.993Z,28.90
2023-03-10T21:03:48.564Z,28.40
2023-03-10T21:06:16.545Z,28.30
2023-03-10T21:08:44.530Z,28.10
2023-03-10T21:11:12.509Z,28.40
2023-03-10T21:13:41.980Z,28.50
2023-03-10T21:16:10.329Z,28.60
2023-03-10T21:18:39.260Z,28.50
2023-03-10T21:21:09.476Z,28.30
2023-03-10T21:23:38.641Z,28.20
2023-03-10T21:26:12.173Z,28.50
2023-03-10T21:28:42.069Z,28.70
2023-03-10T21:31:11.192Z,28.20
2023-03-10T21:33:41.601Z,28.50
2023-03-10T21:36:12.601Z,29.40
2023-03-10T21:38:40.987Z,28.30
2023-03-10T21:41:09.166Z,28.50
2023-03-10T21:43:37.153Z,28.30
2023-03-10T21:46:06.688Z,28.00
2023-03-10T21:48:34.908Z,28.10
2023-03-10T21:51:02.911Z,28.00
2023-03-10T21:53:30.960Z,28.40
2023-03-10T21:56:00.527Z,28.40
2023-03-10T21:58:28.595Z,28.20
2023-03-10T22:00:56.842Z,28.20
2023-03-10T22:03:26.470Z,28.30
2023-03-10T22:05:54.606Z,28.20
2023-03-10T22:08:22.752Z,28.20
2023-03-10T22:10:50.845Z,28.20
2023-03-10T22:13:18.833Z,28.40
2023-03-10T22:15:46.860Z,28.20
2023-03-10T22:18:14.831Z,28.50
2023-03-10T22:20:44.305Z,28.80
2023-03-10T22:23:12.828Z,28.10
2023-03-10T22:25:40.835Z,28.50
2023-03-10T22:28:09.051Z,28.60
2023-03-10T22:30:37.444Z,28.70
2023-03-10T22:33:06.750Z,28.50
2023-03-10T22:35:35.152Z,28.80
2023-03-10T22:38:05.327Z,28.40
2023-03-10T22:40:33.920Z,28.70
2023-03-10T22:43:01.925Z,28.30
2023-03-10T22:45:33.316Z,28.50
2023-03-10T22:48:04.913Z,28.70
2023-03-10T22:50:35.761Z,28.50
2023-03-10T22:53:08.063Z,28.40
2023-03-10T22:55:37.227Z,28.70
2023-03-10T22:58:07.364Z,28.20
2023-03-10T23:00:36.055Z,28.40
2023-03-10T23:03:05.640Z,28.20
2023-03-10T23:05:33.865Z,28.60
2023-03-10T23:08:01.955Z,28.30
2023-03-10T23:10:34.716Z,28.50
2023-03-10T23:13:06.410Z,29.40
2023-03-10T23:15:38.037Z,28.60
2023-03-10T23:18:07.770Z,28.50
2023-03-10T23:20:38.225Z,28.40
2023-03-10T23:23:08.103Z,28.60
2023-03-10T23:25:40.399Z,28.60
2023-03-10T23:28:10.831Z,28.40
2023-03-10T23:30:41.993Z,28.50
2023-03-10T23:33:13.920Z,28.20
2023-03-10T23:35:41.976Z,28.20
2023-03-10T23:38:10.046Z,28.50
2023-03-10T23:40:39.926Z,28.60
2023-03-10T23:43:08.908Z,28.50
2023-03-10T23:45:38.649Z,28.20
2023-03-10T23:48:09.968Z,28.30
2023-03-10T23:50:41.834Z,28.40
2023-03-10T23:53:12.216Z,28.20
2023-03-10T23:55:44.755Z,28.20
2023-03-10T23:58:13.730Z,28.20
